sensor_id;sensor_type;location;lat;lon;timestamp;pressure;altitude;pressure_sealevel;temperature;humidity
33795;BME280;51430;52.242;21.118;2022-12-18T01:12:56;101756.70;;;-3.18;87.39
33795;BME280;51430;52.242;21.118;2022-12-18T01:16:08;101763.63;;;-3.41;87.79
33795;BME280;51430;52.242;21.118;2022-12-18T01:29:56;101767.45;;;-3.19;88.04
33795;BME280;51430;52.242;21.118;2022-12-18T01:32:55;101774.06;;;-3.28;88.36
33795;BME280;51430;52.242;21.118;2022-12-18T01:35:59;101779.49;;;-3.38;88.66
33795;BME280;51430;52.242;21.118;2022-12-18T01:51:01;101805.30;;;-3.17;88.27
33795;BME280;51430;52.242;21.118;2022-12-18T05:11:07;102064.32;;;-3.72;85.57
33795;BME280;51430;52.242;21.118;2022-12-18T05:14:53;102067.76;;;-3.86;86.18
33795;BME280;51430;52.242;21.118;2022-12-18T05:18:17;102072.68;;;-4.03;86.18
33795;BME280;51430;52.242;21.118;2022-12-18T05:32:01;102093.58;;;-3.93;86.20
33795;BME280;51430;52.242;21.118;2022-12-18T05:35:01;102103.58;;;-4.11;86.31
33795;BME280;51430;52.242;21.118;2022-12-18T05:38:59;102099.71;;;-4.20;86.92
33795;BME280;51430;52.242;21.118;2022-12-18T05:42:04;102106.71;;;-4.32;87.07
33795;BME280;51430;52.242;21.118;2022-12-18T05:46:06;102112.69;;;-4.44;87.25
33795;BME280;51430;52.242;21.118;2022-12-18T05:49:59;102113.11;;;-4.50;87.61
33795;BME280;51430;52.242;21.118;2022-12-18T05:53:18;102125.45;;;-4.55;87.67
33795;BME280;51430;52.242;21.118;2022-12-18T05:57:18;102128.98;;;-4.59;87.72
33795;BME280;51430;52.242;21.118;2022-12-18T06:01:21;102128.00;;;-4.56;88.14
33795;BME280;51430;52.242;21.118;2022-12-18T06:05:20;102135.10;;;-4.47;88.15
33795;BME280;51430;52.242;21.118;2022-12-18T06:20:08;102150.69;;;-4.15;87.31
33795;BME280;51430;52.242;21.118;2022-12-18T06:23:04;102153.16;;;-4.33;87.30
33795;BME280;51430;52.242;21.118;2022-12-18T06:27:04;102161.89;;;-4.42;87.76
33795;BME280;51430;52.242;21.118;2022-12-18T06:31:04;102175.73;;;-4.38;88.03
33795;BME280;51430;52.242;21.118;2022-12-18T06:35:16;102189.61;;;-4.42;88.21
33795;BME280;51430;52.242;21.118;2022-12-18T06:38:49;102199.27;;;-4.46;88.64
33795;BME280;51430;52.242;21.118;2022-12-18T06:42:25;102208.41;;;-4.49;88.74
33795;BME280;51430;52.242;21.118;2022-12-18T06:46:10;102209.91;;;-4.52;89.38
33795;BME280;51430;52.242;21.118;2022-12-18T06:49:38;102216.07;;;-4.48;89.46
33795;BME280;51430;52.242;21.118;2022-12-18T06:53:32;102220.15;;;-4.38;89.56
33795;BME280;51430;52.242;21.118;2022-12-18T06:57:08;102221.90;;;-4.34;89.30
33795;BME280;51430;52.242;21.118;2022-12-18T06:59:53;102225.91;;;-4.40;89.31
33795;BME280;51430;52.242;21.118;2022-12-18T07:02:40;102232.44;;;-4.36;89.41
33795;BME280;51430;52.242;21.118;2022-12-18T07:05:25;102241.90;;;-4.29;89.22
33795;BME280;51430;52.242;21.118;2022-12-18T07:08:10;102242.26;;;-4.17;89.48
33795;BME280;51430;52.242;21.118;2022-12-18T07:10:58;102249.70;;;-4.09;88.85
33795;BME280;51430;52.242;21.118;2022-12-18T07:13:43;102251.13;;;-4.04;88.90
33795;BME280;51430;52.242;21.118;2022-12-18T07:16:28;102252.94;;;-3.96;88.84
33795;BME280;51430;52.242;21.118;2022-12-18T07:19:13;102261.59;;;-3.86;88.77
33795;BME280;51430;52.242;21.118;2022-12-18T07:21:59;102268.68;;;-3.78;88.62
33795;BME280;51430;52.242;21.118;2022-12-18T07:24:43;102273.30;;;-3.75;88.53
33795;BME280;51430;52.242;21.118;2022-12-18T07:27:28;102277.59;;;-3.74;88.53
33795;BME280;51430;52.242;21.118;2022-12-18T07:30:13;102282.45;;;-3.68;88.22
33795;BME280;51430;52.242;21.118;2022-12-18T07:32:59;102281.96;;;-3.65;88.41
33795;BME280;51430;52.242;21.118;2022-12-18T07:35:46;102282.11;;;-3.54;88.27
33795;BME280;51430;52.242;21.118;2022-12-18T07:38:32;102284.55;;;-3.51;88.28
33795;BME280;51430;52.242;21.118;2022-12-18T07:41:18;102285.64;;;-3.46;88.03
33795;BME280;51430;52.242;21.118;2022-12-18T07:44:03;102286.42;;;-3.37;88.31
33795;BME280;51430;52.242;21.118;2022-12-18T07:46:48;102292.66;;;-3.29;88.13
33795;BME280;51430;52.242;21.118;2022-12-18T07:49:33;102297.23;;;-3.17;87.94
33795;BME280;51430;52.242;21.118;2022-12-18T07:52:19;102300.13;;;-3.02;87.94
33795;BME280;51430;52.242;21.118;2022-12-18T07:55:10;102299.39;;;-2.92;87.59
33795;BME280;51430;52.242;21.118;2022-12-18T07:57:55;102303.52;;;-2.88;87.20
33795;BME280;51430;52.242;21.118;2022-12-18T08:00:45;102310.35;;;-2.87;86.71
33795;BME280;51430;52.242;21.118;2022-12-18T08:03:33;102316.43;;;-2.93;86.76
33795;BME280;51430;52.242;21.118;2022-12-18T08:06:18;102323.25;;;-2.94;86.61
33795;BME280;51430;52.242;21.118;2022-12-18T08:09:09;102334.27;;;-2.85;86.60
33795;BME280;51430;52.242;21.118;2022-12-18T08:11:54;102339.80;;;-2.78;86.70
33795;BME280;51430;52.242;21.118;2022-12-18T08:14:39;102340.93;;;-2.69;86.48
33795;BME280;51430;52.242;21.118;2022-12-18T08:17:24;102341.31;;;-2.65;86.10
33795;BME280;51430;52.242;21.118;2022-12-18T08:20:11;102345.95;;;-2.61;86.19
33795;BME280;51430;52.242;21.118;2022-12-18T08:22:58;102343.27;;;-2.57;86.16
33795;BME280;51430;52.242;21.118;2022-12-18T08:25:44;102345.14;;;-2.57;85.71
33795;BME280;51430;52.242;21.118;2022-12-18T08:28:28;102345.23;;;-2.66;85.67
33795;BME280;51430;52.242;21.118;2022-12-18T08:31:14;102348.27;;;-2.50;86.07
33795;BME280;51430;52.242;21.118;2022-12-18T08:35:40;102357.00;;;-2.31;85.68
33795;BME280;51430;52.242;21.118;2022-12-18T08:38:31;102363.48;;;-2.48;85.72
33795;BME280;51430;52.242;21.118;2022-12-18T08:41:17;102371.27;;;-2.39;85.65
33795;BME280;51430;52.242;21.118;2022-12-18T08:44:06;102374.76;;;-2.31;85.35
33795;BME280;51430;52.242;21.118;2022-12-18T08:47:10;102377.48;;;-2.32;84.85
33795;BME280;51430;52.242;21.118;2022-12-18T08:50:22;102383.50;;;-2.27;84.62
33795;BME280;51430;52.242;21.118;2022-12-18T08:53:09;102382.02;;;-2.39;84.58
33795;BME280;51430;52.242;21.118;2022-12-18T08:56:00;102384.20;;;-2.44;84.67
33795;BME280;51430;52.242;21.118;2022-12-18T08:58:46;102384.73;;;-2.24;84.79
33795;BME280;51430;52.242;21.118;2022-12-18T09:01:32;102383.11;;;-2.16;84.44
33795;BME280;51430;52.242;21.118;2022-12-18T09:04:21;102386.16;;;-2.17;84.22
33795;BME280;51430;52.242;21.118;2022-12-18T09:07:07;102393.33;;;-2.18;84.31
33795;BME280;51430;52.242;21.118;2022-12-18T09:09:53;102396.82;;;-2.11;84.54
33795;BME280;51430;52.242;21.118;2022-12-18T09:12:40;102401.70;;;-1.99;84.64
33795;BME280;51430;52.242;21.118;2022-12-18T09:15:26;102398.43;;;-1.80;84.50
33795;BME280;51430;52.242;21.118;2022-12-18T09:18:15;102395.99;;;-1.62;84.37
33795;BME280;51430;52.242;21.118;2022-12-18T09:21:18;102397.98;;;-1.47;83.47
33795;BME280;51430;52.242;21.118;2022-12-18T09:24:08;102399.91;;;-1.39;83.32
33795;BME280;51430;52.242;21.118;2022-12-18T09:26:58;102408.17;;;-1.30;82.64
33795;BME280;51430;52.242;21.118;2022-12-18T09:29:45;102409.95;;;-1.16;82.62
33795;BME280;51430;52.242;21.118;2022-12-18T09:32:32;102414.81;;;-1.04;82.33
33795;BME280;51430;52.242;21.118;2022-12-18T09:35:19;102405.90;;;-1.07;81.36
33795;BME280;51430;52.242;21.118;2022-12-18T09:38:08;102412.80;;;-1.28;81.21
33795;BME280;51430;52.242;21.118;2022-12-18T09:40:59;102413.22;;;-1.14;81.12
33795;BME280;51430;52.242;21.118;2022-12-18T09:43:52;102408.68;;;-1.31;80.04
33795;BME280;51430;52.242;21.118;2022-12-18T09:46:44;102409.96;;;-1.17;80.26
33795;BME280;51430;52.242;21.118;2022-12-18T09:49:35;102417.77;;;-0.94;79.83
33795;BME280;51430;52.242;21.118;2022-12-18T09:52:40;102418.31;;;-1.23;78.71
33795;BME280;51430;52.242;21.118;2022-12-18T09:55:34;102418.72;;;-1.41;79.21
33795;BME280;51430;52.242;21.118;2022-12-18T10:00:17;102417.48;;;-1.46;79.28
33795;BME280;51430;52.242;21.118;2022-12-18T10:03:23;102421.13;;;-1.08;79.00
33795;BME280;51430;52.242;21.118;2022-12-18T10:07:29;102422.16;;;-1.07;78.30
33795;BME280;51430;52.242;21.118;2022-12-18T10:11:43;102428.84;;;-1.06;78.21
33795;BME280;51430;52.242;21.118;2022-12-18T10:15:58;102423.90;;;-1.01;79.36
33795;BME280;51430;52.242;21.118;2022-12-18T10:20:05;102428.14;;;-0.72;78.26
33795;BME280;51430;52.242;21.118;2022-12-18T10:24:29;102436.60;;;-0.93;78.51
33795;BME280;51430;52.242;21.118;2022-12-18T10:28:32;102437.80;;;-1.24;79.36
33795;BME280;51430;52.242;21.118;2022-12-18T10:32:30;102437.03;;;-1.61;80.01
33795;BME280;51430;52.242;21.118;2022-12-18T10:36:49;102437.21;;;-1.38;80.70
33795;BME280;51430;52.242;21.118;2022-12-18T10:40:14;102436.98;;;-1.20;80.66
33795;BME280;51430;52.242;21.118;2022-12-18T10:44:24;102431.10;;;-1.30;80.51
33795;BME280;51430;52.242;21.118;2022-12-18T10:47:56;102435.27;;;-1.18;79.77
33795;BME280;51430;52.242;21.118;2022-12-18T10:50:47;102432.30;;;-1.30;79.04
33795;BME280;51430;52.242;21.118;2022-12-18T10:56:49;102439.48;;;-1.54;78.98
33795;BME280;51430;52.242;21.118;2022-12-18T10:59:50;102439.00;;;-1.51;79.47
33795;BME280;51430;52.242;21.118;2022-12-18T11:05:01;102439.20;;;-1.69;79.58
33795;BME280;51430;52.242;21.118;2022-12-18T11:19:39;102449.73;;;-0.99;79.46
33795;BME280;51430;52.242;21.118;2022-12-18T11:47:00;102457.21;;;-1.08;78.79
33795;BME280;51430;52.242;21.118;2022-12-18T11:50:14;102456.98;;;-1.21;79.53
33795;BME280;51430;52.242;21.118;2022-12-18T11:54:17;102457.09;;;-1.03;79.82
33795;BME280;51430;52.242;21.118;2022-12-18T12:28:51;102474.08;;;-1.23;78.57
33795;BME280;51430;52.242;21.118;2022-12-18T12:32:29;102472.88;;;-0.96;78.34
33795;BME280;51430;52.242;21.118;2022-12-18T12:36:36;102473.25;;;-0.91;77.98
33795;BME280;51430;52.242;21.118;2022-12-18T12:40:46;102483.93;;;-1.07;77.88
33795;BME280;51430;52.242;21.118;2022-12-18T12:54:47;102504.27;;;-0.46;76.91
33795;BME280;51430;52.242;21.118;2022-12-18T13:12:29;102522.50;;;-1.21;78.72
33795;BME280;51430;52.242;21.118;2022-12-18T13:15:50;102532.15;;;-1.55;79.46
33795;BME280;51430;52.242;21.118;2022-12-18T13:30:56;102542.70;;;-1.78;80.59
33795;BME280;51430;52.242;21.118;2022-12-18T13:44:43;102542.64;;;-1.67;81.48
33795;BME280;51430;52.242;21.118;2022-12-18T13:47:39;102547.43;;;-1.84;81.58
33795;BME280;51430;52.242;21.118;2022-12-18T13:51:34;102549.43;;;-2.05;82.28
33795;BME280;51430;52.242;21.118;2022-12-18T13:55:33;102548.57;;;-2.05;82.75
33795;BME280;51430;52.242;21.118;2022-12-18T14:00:24;102552.99;;;-2.22;83.42
33795;BME280;51430;52.242;21.118;2022-12-18T14:03:24;102562.93;;;-2.32;83.89
33795;BME280;51430;52.242;21.118;2022-12-18T14:18:29;102572.31;;;-2.20;83.79
33795;BME280;51430;52.242;21.118;2022-12-18T14:21:28;102575.41;;;-2.44;84.61
33795;BME280;51430;52.242;21.118;2022-12-18T14:36:02;102579.52;;;-2.30;84.22
33795;BME280;51430;52.242;21.118;2022-12-18T14:39:00;102573.59;;;-2.52;84.72
33795;BME280;51430;52.242;21.118;2022-12-18T14:43:08;102572.79;;;-2.61;85.66
33795;BME280;51430;52.242;21.118;2022-12-18T14:57:59;102585.64;;;-2.45;84.81
33795;BME280;51430;52.242;21.118;2022-12-18T15:11:47;102600.35;;;-2.44;84.91
33795;BME280;51430;52.242;21.118;2022-12-18T15:25:35;102613.73;;;-2.39;84.93
33795;BME280;51430;52.242;21.118;2022-12-18T15:28:52;102617.70;;;-2.48;84.96
33795;BME280;51430;52.242;21.118;2022-12-18T15:43:08;102620.66;;;-2.43;85.33
33795;BME280;51430;52.242;21.118;2022-12-18T15:46:47;102623.34;;;-2.59;85.37
33795;BME280;51430;52.242;21.118;2022-12-18T15:50:10;102633.04;;;-2.62;85.73
33795;BME280;51430;52.242;21.118;2022-12-18T16:04:34;102638.05;;;-2.46;85.62
33795;BME280;51430;52.242;21.118;2022-12-18T16:07:56;102644.02;;;-2.68;85.77
33795;BME280;51430;52.242;21.118;2022-12-18T16:21:57;102642.26;;;-2.73;85.42
33795;BME280;51430;52.242;21.118;2022-12-18T16:24:59;102641.84;;;-2.88;85.86
33795;BME280;51430;52.242;21.118;2022-12-18T16:28:39;102640.66;;;-2.88;86.32
33795;BME280;51430;52.242;21.118;2022-12-18T16:32:17;102642.71;;;-2.98;86.34
33795;BME280;51430;52.242;21.118;2022-12-18T16:36:17;102648.83;;;-2.99;86.71
33795;BME280;51430;52.242;21.118;2022-12-18T16:40:33;102642.10;;;-2.93;86.45
33795;BME280;51430;52.242;21.118;2022-12-18T16:44:15;102641.25;;;-2.93;86.87
33795;BME280;51430;52.242;21.118;2022-12-18T16:58:00;102648.77;;;-2.93;86.68
33795;BME280;51430;52.242;21.118;2022-12-18T17:11:46;102662.65;;;-3.08;86.93
33795;BME280;51430;52.242;21.118;2022-12-18T17:25:38;102685.29;;;-3.01;86.99
33795;BME280;51430;52.242;21.118;2022-12-18T17:39:17;102681.17;;;-3.32;87.39
33795;BME280;51430;52.242;21.118;2022-12-18T17:42:51;102680.52;;;-3.57;88.33
33795;BME280;51430;52.242;21.118;2022-12-18T17:46:02;102685.80;;;-3.65;88.81
33795;BME280;51430;52.242;21.118;2022-12-18T18:00:41;102687.02;;;-3.64;89.07
33795;BME280;51430;52.242;21.118;2022-12-18T18:03:39;102698.45;;;-3.71;89.17
33795;BME280;51430;52.242;21.118;2022-12-18T18:07:56;102709.43;;;-3.84;90.02
33795;BME280;51430;52.242;21.118;2022-12-18T18:11:22;102709.04;;;-3.87;90.23
33795;BME280;51430;52.242;21.118;2022-12-18T18:14:59;102708.60;;;-3.92;90.37
33795;BME280;51430;52.242;21.118;2022-12-18T18:18:37;102707.30;;;-3.88;90.57
33795;BME280;51430;52.242;21.118;2022-12-18T18:46:21;102711.95;;;-3.78;89.74
33795;BME280;51430;52.242;21.118;2022-12-18T18:49:23;102708.55;;;-3.85;89.43
33795;BME280;51430;52.242;21.118;2022-12-18T19:03:36;102701.37;;;-3.87;89.47
33795;BME280;51430;52.242;21.118;2022-12-18T19:07:06;102699.23;;;-4.00;89.81
33795;BME280;51430;52.242;21.118;2022-12-18T19:10:19;102690.52;;;-4.16;90.54
33795;BME280;51430;52.242;21.118;2022-12-18T19:24:17;102709.28;;;-4.15;90.49
33795;BME280;51430;52.242;21.118;2022-12-18T19:27:18;102708.95;;;-4.30;90.37
33795;BME280;51430;52.242;21.118;2022-12-18T19:30:07;102701.56;;;-4.32;90.65
33795;BME280;51430;52.242;21.118;2022-12-18T19:32:55;102708.05;;;-4.40;90.76
33795;BME280;51430;52.242;21.118;2022-12-18T19:35:48;102710.45;;;-4.39;90.84
33795;BME280;51430;52.242;21.118;2022-12-18T19:38:35;102717.67;;;-4.35;90.62
33795;BME280;51430;52.242;21.118;2022-12-18T19:41:22;102725.42;;;-4.31;90.72
33795;BME280;51430;52.242;21.118;2022-12-18T19:44:12;102737.48;;;-4.33;90.87
33795;BME280;51430;52.242;21.118;2022-12-18T19:46:59;102735.73;;;-4.34;90.65
33795;BME280;51430;52.242;21.118;2022-12-18T19:49:46;102743.06;;;-4.34;90.79
33795;BME280;51430;52.242;21.118;2022-12-18T19:52:33;102746.73;;;-4.37;90.84
33795;BME280;51430;52.242;21.118;2022-12-18T19:55:20;102739.30;;;-4.35;91.06
33795;BME280;51430;52.242;21.118;2022-12-18T19:58:08;102738.90;;;-4.38;90.91
33795;BME280;51430;52.242;21.118;2022-12-18T20:00:55;102740.56;;;-4.39;90.58
33795;BME280;51430;52.242;21.118;2022-12-18T20:04:43;102736.23;;;-4.43;90.82
33795;BME280;51430;52.242;21.118;2022-12-18T20:07:48;102727.83;;;-4.45;90.84
33795;BME280;51430;52.242;21.118;2022-12-18T20:11:44;102722.91;;;-4.51;90.97
33795;BME280;51430;52.242;21.118;2022-12-18T20:15:55;102724.20;;;-4.47;91.63
33795;BME280;51430;52.242;21.118;2022-12-18T20:19:19;102728.70;;;-4.52;91.69
33795;BME280;51430;52.242;21.118;2022-12-18T20:34:11;102726.54;;;-4.35;90.68
33795;BME280;51430;52.242;21.118;2022-12-18T20:36:58;102729.61;;;-4.49;90.85
33795;BME280;51430;52.242;21.118;2022-12-18T20:39:45;102729.04;;;-4.44;90.78
33795;BME280;51430;52.242;21.118;2022-12-18T20:42:32;102731.64;;;-4.42;90.85
33795;BME280;51430;52.242;21.118;2022-12-18T20:45:19;102730.18;;;-4.46;91.06
33795;BME280;51430;52.242;21.118;2022-12-18T20:48:06;102727.02;;;-4.36;91.05
33795;BME280;51430;52.242;21.118;2022-12-18T20:50:57;102726.16;;;-4.37;91.04
33795;BME280;51430;52.242;21.118;2022-12-18T20:53:48;102728.95;;;-4.34;90.60
33795;BME280;51430;52.242;21.118;2022-12-18T20:56:34;102740.97;;;-4.37;90.23
33795;BME280;51430;52.242;21.118;2022-12-18T20:59:21;102750.48;;;-4.44;90.43
33795;BME280;51430;52.242;21.118;2022-12-18T21:02:11;102751.90;;;-4.42;90.63
33795;BME280;51430;52.242;21.118;2022-12-18T21:04:58;102756.46;;;-4.36;90.54
33795;BME280;51430;52.242;21.118;2022-12-18T21:07:44;102759.80;;;-4.32;90.55
33795;BME280;51430;52.242;21.118;2022-12-18T21:10:31;102758.11;;;-4.31;90.42
33795;BME280;51430;52.242;21.118;2022-12-18T21:13:37;102756.61;;;-4.30;90.62
33795;BME280;51430;52.242;21.118;2022-12-18T21:16:35;102766.45;;;-4.24;90.07
33795;BME280;51430;52.242;21.118;2022-12-18T21:19:24;102758.39;;;-4.34;89.92
33795;BME280;51430;52.242;21.118;2022-12-18T21:22:13;102761.11;;;-4.34;89.58
33795;BME280;51430;52.242;21.118;2022-12-18T21:25:02;102758.64;;;-4.44;89.89
33795;BME280;51430;52.242;21.118;2022-12-18T21:27:49;102756.81;;;-4.36;90.23
33795;BME280;51430;52.242;21.118;2022-12-18T21:30:36;102750.70;;;-4.35;90.23
33795;BME280;51430;52.242;21.118;2022-12-18T21:34:27;102747.27;;;-4.35;90.11
33795;BME280;51430;52.242;21.118;2022-12-18T21:37:12;102742.81;;;-4.44;90.09
33795;BME280;51430;52.242;21.118;2022-12-18T21:39:57;102736.69;;;-4.45;90.00
33795;BME280;51430;52.242;21.118;2022-12-18T21:42:43;102734.64;;;-4.45;89.72
33795;BME280;51430;52.242;21.118;2022-12-18T21:46:05;102728.12;;;-4.40;89.83
33795;BME280;51430;52.242;21.118;2022-12-18T21:48:52;102723.27;;;-4.51;89.83
33795;BME280;51430;52.242;21.118;2022-12-18T21:51:40;102722.17;;;-4.47;90.35
33795;BME280;51430;52.242;21.118;2022-12-18T21:54:27;102720.61;;;-4.48;90.37
33795;BME280;51430;52.242;21.118;2022-12-18T21:57:15;102712.09;;;-4.42;90.21
33795;BME280;51430;52.242;21.118;2022-12-18T22:00:27;102706.09;;;-4.36;89.94
33795;BME280;51430;52.242;21.118;2022-12-18T22:03:16;102689.69;;;-4.38;89.74
33795;BME280;51430;52.242;21.118;2022-12-18T22:06:05;102682.39;;;-4.38;89.83
33795;BME280;51430;52.242;21.118;2022-12-18T22:09:24;102682.93;;;-4.43;89.72
33795;BME280;51430;52.242;21.118;2022-12-18T22:12:31;102677.00;;;-4.42;89.74
33795;BME280;51430;52.242;21.118;2022-12-18T22:26:53;102649.85;;;-4.61;89.21
33795;BME280;51430;52.242;21.118;2022-12-18T22:54:15;102645.48;;;-4.87;89.80
33795;BME280;51430;52.242;21.118;2022-12-18T22:57:32;102646.64;;;-4.89;89.96
33795;BME280;51430;52.242;21.118;2022-12-18T23:11:17;102654.22;;;-4.92;89.46
33795;BME280;51430;52.242;21.118;2022-12-18T23:14:14;102657.80;;;-5.19;89.69
33795;BME280;51430;52.242;21.118;2022-12-18T23:18:29;102649.36;;;-5.29;90.49
33795;BME280;51430;52.242;21.118;2022-12-18T23:21:50;102648.18;;;-5.29;90.81
33795;BME280;51430;52.242;21.118;2022-12-18T23:25:46;102646.35;;;-5.34;91.17
33795;BME280;51430;52.242;21.118;2022-12-18T23:29:44;102643.27;;;-5.35;91.22
33795;BME280;51430;52.242;21.118;2022-12-18T23:34:05;102639.23;;;-5.40;91.35
33795;BME280;51430;52.242;21.118;2022-12-18T23:37:37;102637.82;;;-5.42;91.58
33795;BME280;51430;52.242;21.118;2022-12-18T23:40:43;102632.20;;;-5.49;91.46
33795;BME280;51430;52.242;21.118;2022-12-18T23:43:30;102638.63;;;-5.44;91.84
33795;BME280;51430;52.242;21.118;2022-12-18T23:46:18;102643.68;;;-5.32;91.47
33795;BME280;51430;52.242;21.118;2022-12-18T23:51:25;102629.86;;;-5.41;90.88
33795;BME280;51430;52.242;21.118;2022-12-18T23:55:23;102634.52;;;-5.51;90.96
33795;BME280;51430;52.242;21.118;2022-12-18T23:59:32;102636.83;;;-5.47;91.32
